sensor_id;sensor_type;location;lat;lon;timestamp;P1;durP1;ratioP1;P2;durP2;ratioP2
51270;SDS011;37744;50.960;4.136;2022-10-13T00:00:41;16.85;;;8.07;;
51270;SDS011;37744;50.960;4.136;2022-10-13T00:03:07;11.73;;;7.28;;
51270;SDS011;37744;50.960;4.136;2022-10-13T00:05:38;14.23;;;7.95;;
51270;SDS011;37744;50.960;4.136;2022-10-13T00:08:07;17.65;;;8.55;;
51270;SDS011;37744;50.960;4.136;2022-10-13T00:10:35;16.77;;;7.97;;
51270;SDS011;37744;50.960;4.136;2022-10-13T00:13:02;16.92;;;7.93;;
51270;SDS011;37744;50.960;4.136;2022-10-13T00:15:28;14.18;;;7.50;;
51270;SDS011;37744;50.960;4.136;2022-10-13T00:17:53;20.25;;;8.43;;
51270;SDS011;37744;50.960;4.136;2022-10-13T00:20:20;15.80;;;7.93;;
51270;SDS011;37744;50.960;4.136;2022-10-13T00:22:45;16.05;;;8.35;;
51270;SDS011;37744;50.960;4.136;2022-10-13T00:25:11;18.15;;;8.15;;
51270;SDS011;37744;50.960;4.136;2022-10-13T00:27:37;14.23;;;7.70;;
51270;SDS011;37744;50.960;4.136;2022-10-13T00:30:04;12.77;;;7.63;;
51270;SDS011;37744;50.960;4.136;2022-10-13T00:32:30;14.38;;;8.25;;
51270;SDS011;37744;50.960;4.136;2022-10-13T00:34:56;15.40;;;7.60;;
51270;SDS011;37744;50.960;4.136;2022-10-13T00:37:22;17.20;;;8.68;;
51270;SDS011;37744;50.960;4.136;2022-10-13T00:39:48;17.90;;;8.60;;
51270;SDS011;37744;50.960;4.136;2022-10-13T00:42:14;19.38;;;8.95;;
51270;SDS011;37744;50.960;4.136;2022-10-13T00:47:45;15.35;;;7.78;;
51270;SDS011;37744;50.960;4.136;2022-10-13T00:50:15;16.95;;;8.85;;
51270;SDS011;37744;50.960;4.136;2022-10-13T00:52:44;15.82;;;9.02;;
51270;SDS011;37744;50.960;4.136;2022-10-13T00:55:15;17.13;;;8.15;;
51270;SDS011;37744;50.960;4.136;2022-10-13T00:57:44;15.50;;;8.82;;
51270;SDS011;37744;50.960;4.136;2022-10-13T01:00:12;17.20;;;8.70;;
51270;SDS011;37744;50.960;4.136;2022-10-13T01:02:39;18.10;;;8.52;;
51270;SDS011;37744;50.960;4.136;2022-10-13T01:05:05;16.80;;;8.65;;
51270;SDS011;37744;50.960;4.136;2022-10-13T01:07:32;14.90;;;9.00;;
51270;SDS011;37744;50.960;4.136;2022-10-13T01:09:59;15.05;;;8.75;;
51270;SDS011;37744;50.960;4.136;2022-10-13T01:20:46;20.38;;;9.48;;
51270;SDS011;37744;50.960;4.136;2022-10-13T01:26:11;19.27;;;9.88;;
51270;SDS011;37744;50.960;4.136;2022-10-13T01:29:13;19.42;;;9.13;;
51270;SDS011;37744;50.960;4.136;2022-10-13T01:34:32;18.40;;;9.07;;
51270;SDS011;37744;50.960;4.136;2022-10-13T01:40:01;19.05;;;9.20;;
51270;SDS011;37744;50.960;4.136;2022-10-13T01:42:47;14.90;;;8.88;;
51270;SDS011;37744;50.960;4.136;2022-10-13T01:45:20;19.70;;;9.60;;
51270;SDS011;37744;50.960;4.136;2022-10-13T01:47:55;17.13;;;9.02;;
51270;SDS011;37744;50.960;4.136;2022-10-13T01:50:23;18.63;;;9.57;;
51270;SDS011;37744;50.960;4.136;2022-10-13T01:52:48;19.92;;;9.63;;
51270;SDS011;37744;50.960;4.136;2022-10-13T01:55:17;17.08;;;9.10;;
51270;SDS011;37744;50.960;4.136;2022-10-13T01:57:44;18.15;;;9.70;;
51270;SDS011;37744;50.960;4.136;2022-10-13T02:08:49;19.58;;;9.50;;
51270;SDS011;37744;50.960;4.136;2022-10-13T02:13:35;16.23;;;9.82;;
51270;SDS011;37744;50.960;4.136;2022-10-13T02:16:04;16.70;;;10.13;;
51270;SDS011;37744;50.960;4.136;2022-10-13T02:18:32;19.35;;;9.73;;
51270;SDS011;37744;50.960;4.136;2022-10-13T02:20:59;19.83;;;8.95;;
51270;SDS011;37744;50.960;4.136;2022-10-13T02:23:26;19.65;;;9.98;;
51270;SDS011;37744;50.960;4.136;2022-10-13T02:25:52;20.38;;;10.27;;
51270;SDS011;37744;50.960;4.136;2022-10-13T02:28:20;18.98;;;8.85;;
51270;SDS011;37744;50.960;4.136;2022-10-13T02:30:47;17.50;;;9.70;;
51270;SDS011;37744;50.960;4.136;2022-10-13T02:33:13;17.60;;;9.35;;
51270;SDS011;37744;50.960;4.136;2022-10-13T02:35:40;15.30;;;9.00;;
51270;SDS011;37744;50.960;4.136;2022-10-13T02:38:10;17.90;;;9.38;;
51270;SDS011;37744;50.960;4.136;2022-10-13T02:40:36;15.38;;;9.35;;
51270;SDS011;37744;50.960;4.136;2022-10-13T02:43:01;17.25;;;9.80;;
51270;SDS011;37744;50.960;4.136;2022-10-13T02:45:27;18.60;;;10.45;;
51270;SDS011;37744;50.960;4.136;2022-10-13T02:47:53;22.35;;;10.48;;
51270;SDS011;37744;50.960;4.136;2022-10-13T02:50:18;18.27;;;9.65;;
51270;SDS011;37744;50.960;4.136;2022-10-13T02:52:43;16.92;;;9.23;;
51270;SDS011;37744;50.960;4.136;2022-10-13T02:55:10;16.50;;;9.13;;
51270;SDS011;37744;50.960;4.136;2022-10-13T02:57:35;21.25;;;10.88;;
51270;SDS011;37744;50.960;4.136;2022-10-13T03:00:03;21.45;;;10.50;;
51270;SDS011;37744;50.960;4.136;2022-10-13T03:02:29;18.27;;;10.13;;
51270;SDS011;37744;50.960;4.136;2022-10-13T03:04:56;19.92;;;10.32;;
51270;SDS011;37744;50.960;4.136;2022-10-13T03:07:21;20.27;;;9.50;;
51270;SDS011;37744;50.960;4.136;2022-10-13T03:09:47;22.02;;;11.20;;
51270;SDS011;37744;50.960;4.136;2022-10-13T03:12:12;21.15;;;10.80;;
51270;SDS011;37744;50.960;4.136;2022-10-13T03:14:38;19.50;;;10.90;;
51270;SDS011;37744;50.960;4.136;2022-10-13T03:17:03;21.77;;;11.38;;
51270;SDS011;37744;50.960;4.136;2022-10-13T03:19:30;20.75;;;10.45;;
51270;SDS011;37744;50.960;4.136;2022-10-13T03:21:56;22.48;;;10.82;;
51270;SDS011;37744;50.960;4.136;2022-10-13T03:24:21;19.70;;;11.52;;
51270;SDS011;37744;50.960;4.136;2022-10-13T03:26:49;20.85;;;11.10;;
51270;SDS011;37744;50.960;4.136;2022-10-13T03:29:16;23.33;;;11.77;;
51270;SDS011;37744;50.960;4.136;2022-10-13T03:31:46;24.38;;;12.10;;
51270;SDS011;37744;50.960;4.136;2022-10-13T03:34:12;22.33;;;11.95;;
51270;SDS011;37744;50.960;4.136;2022-10-13T03:36:43;24.10;;;12.52;;
51270;SDS011;37744;50.960;4.136;2022-10-13T03:39:09;26.45;;;12.60;;
51270;SDS011;37744;50.960;4.136;2022-10-13T03:41:36;26.55;;;13.25;;
51270;SDS011;37744;50.960;4.136;2022-10-13T03:44:01;25.02;;;12.65;;
51270;SDS011;37744;50.960;4.136;2022-10-13T03:46:27;29.80;;;12.07;;
51270;SDS011;37744;50.960;4.136;2022-10-13T03:48:53;27.10;;;12.68;;
51270;SDS011;37744;50.960;4.136;2022-10-13T03:51:21;26.85;;;13.80;;
51270;SDS011;37744;50.960;4.136;2022-10-13T03:53:48;31.13;;;14.63;;
51270;SDS011;37744;50.960;4.136;2022-10-13T03:56:16;28.42;;;13.15;;
51270;SDS011;37744;50.960;4.136;2022-10-13T03:58:44;29.25;;;13.70;;
51270;SDS011;37744;50.960;4.136;2022-10-13T04:01:10;23.85;;;12.90;;
51270;SDS011;37744;50.960;4.136;2022-10-13T04:03:37;28.40;;;13.77;;
51270;SDS011;37744;50.960;4.136;2022-10-13T04:06:03;24.90;;;13.68;;
51270;SDS011;37744;50.960;4.136;2022-10-13T04:08:30;22.77;;;13.18;;
51270;SDS011;37744;50.960;4.136;2022-10-13T04:11:00;26.60;;;13.93;;
51270;SDS011;37744;50.960;4.136;2022-10-13T04:13:27;27.52;;;13.82;;
51270;SDS011;37744;50.960;4.136;2022-10-13T04:15:52;25.88;;;14.10;;
51270;SDS011;37744;50.960;4.136;2022-10-13T04:18:18;27.40;;;14.07;;
51270;SDS011;37744;50.960;4.136;2022-10-13T04:20:44;26.10;;;13.77;;
51270;SDS011;37744;50.960;4.136;2022-10-13T04:23:09;26.98;;;13.23;;
51270;SDS011;37744;50.960;4.136;2022-10-13T04:25:35;28.92;;;14.07;;
51270;SDS011;37744;50.960;4.136;2022-10-13T04:28:03;25.58;;;13.45;;
51270;SDS011;37744;50.960;4.136;2022-10-13T04:30:31;27.20;;;13.85;;
51270;SDS011;37744;50.960;4.136;2022-10-13T04:32:57;28.95;;;13.85;;
51270;SDS011;37744;50.960;4.136;2022-10-13T04:35:23;27.23;;;14.27;;
51270;SDS011;37744;50.960;4.136;2022-10-13T04:37:51;27.48;;;14.43;;
51270;SDS011;37744;50.960;4.136;2022-10-13T04:40:16;28.10;;;15.40;;
51270;SDS011;37744;50.960;4.136;2022-10-13T04:42:43;31.02;;;14.18;;
51270;SDS011;37744;50.960;4.136;2022-10-13T04:45:10;24.85;;;13.25;;
51270;SDS011;37744;50.960;4.136;2022-10-13T04:47:36;27.27;;;14.88;;
51270;SDS011;37744;50.960;4.136;2022-10-13T04:50:03;26.77;;;14.38;;
51270;SDS011;37744;50.960;4.136;2022-10-13T04:52:29;29.70;;;14.57;;
51270;SDS011;37744;50.960;4.136;2022-10-13T04:54:55;25.58;;;14.07;;
51270;SDS011;37744;50.960;4.136;2022-10-13T04:57:21;26.73;;;13.93;;
51270;SDS011;37744;50.960;4.136;2022-10-13T04:59:46;28.13;;;14.13;;
51270;SDS011;37744;50.960;4.136;2022-10-13T05:02:12;32.47;;;14.02;;
51270;SDS011;37744;50.960;4.136;2022-10-13T05:04:37;26.92;;;14.30;;
51270;SDS011;37744;50.960;4.136;2022-10-13T05:07:03;29.85;;;14.80;;
51270;SDS011;37744;50.960;4.136;2022-10-13T05:09:29;27.42;;;14.75;;
51270;SDS011;37744;50.960;4.136;2022-10-13T05:11:55;29.23;;;14.57;;
51270;SDS011;37744;50.960;4.136;2022-10-13T05:14:21;29.58;;;14.63;;
51270;SDS011;37744;50.960;4.136;2022-10-13T05:19:15;22.77;;;13.82;;
51270;SDS011;37744;50.960;4.136;2022-10-13T05:21:40;28.20;;;13.82;;
51270;SDS011;37744;50.960;4.136;2022-10-13T05:24:06;29.10;;;14.98;;
51270;SDS011;37744;50.960;4.136;2022-10-13T05:26:37;29.23;;;15.38;;
51270;SDS011;37744;50.960;4.136;2022-10-13T05:29:02;29.30;;;14.85;;
51270;SDS011;37744;50.960;4.136;2022-10-13T05:31:29;30.80;;;15.35;;
51270;SDS011;37744;50.960;4.136;2022-10-13T05:33:57;27.00;;;14.73;;
51270;SDS011;37744;50.960;4.136;2022-10-13T05:36:33;28.65;;;13.98;;
51270;SDS011;37744;50.960;4.136;2022-10-13T05:39:03;26.15;;;13.90;;
51270;SDS011;37744;50.960;4.136;2022-10-13T05:41:30;26.13;;;14.18;;
51270;SDS011;37744;50.960;4.136;2022-10-13T05:44:00;26.88;;;13.95;;
51270;SDS011;37744;50.960;4.136;2022-10-13T05:46:30;26.05;;;14.35;;
51270;SDS011;37744;50.960;4.136;2022-10-13T05:48:56;25.55;;;13.73;;
51270;SDS011;37744;50.960;4.136;2022-10-13T05:51:25;26.52;;;13.57;;
51270;SDS011;37744;50.960;4.136;2022-10-13T05:53:54;24.70;;;13.82;;
51270;SDS011;37744;50.960;4.136;2022-10-13T05:56:36;27.80;;;14.93;;
51270;SDS011;37744;50.960;4.136;2022-10-13T05:59:08;25.65;;;13.40;;
51270;SDS011;37744;50.960;4.136;2022-10-13T06:01:39;24.02;;;13.80;;
51270;SDS011;37744;50.960;4.136;2022-10-13T06:04:13;28.17;;;13.73;;
51270;SDS011;37744;50.960;4.136;2022-10-13T06:06:44;25.75;;;14.00;;
51270;SDS011;37744;50.960;4.136;2022-10-13T06:09:11;26.35;;;14.07;;
51270;SDS011;37744;50.960;4.136;2022-10-13T06:11:38;30.83;;;15.23;;
51270;SDS011;37744;50.960;4.136;2022-10-13T06:14:03;28.73;;;14.40;;
51270;SDS011;37744;50.960;4.136;2022-10-13T06:16:29;28.00;;;13.85;;
51270;SDS011;37744;50.960;4.136;2022-10-13T06:18:55;21.83;;;13.57;;
51270;SDS011;37744;50.960;4.136;2022-10-13T06:21:21;22.92;;;12.82;;
51270;SDS011;37744;50.960;4.136;2022-10-13T06:23:46;25.23;;;13.82;;
51270;SDS011;37744;50.960;4.136;2022-10-13T06:26:11;25.75;;;13.77;;
51270;SDS011;37744;50.960;4.136;2022-10-13T06:28:37;26.60;;;14.32;;
51270;SDS011;37744;50.960;4.136;2022-10-13T06:31:05;31.50;;;14.73;;
51270;SDS011;37744;50.960;4.136;2022-10-13T06:33:31;28.58;;;14.93;;
51270;SDS011;37744;50.960;4.136;2022-10-13T06:36:01;26.15;;;13.52;;
51270;SDS011;37744;50.960;4.136;2022-10-13T06:38:28;26.88;;;13.50;;
51270;SDS011;37744;50.960;4.136;2022-10-13T06:40:57;28.27;;;14.95;;
51270;SDS011;37744;50.960;4.136;2022-10-13T06:43:25;31.80;;;13.15;;
51270;SDS011;37744;50.960;4.136;2022-10-13T06:45:51;26.83;;;12.95;;
51270;SDS011;37744;50.960;4.136;2022-10-13T06:48:17;25.30;;;13.55;;
51270;SDS011;37744;50.960;4.136;2022-10-13T06:50:43;27.08;;;13.13;;
51270;SDS011;37744;50.960;4.136;2022-10-13T06:53:08;25.00;;;13.25;;
51270;SDS011;37744;50.960;4.136;2022-10-13T06:55:34;29.45;;;13.68;;
51270;SDS011;37744;50.960;4.136;2022-10-13T06:58:00;22.50;;;12.20;;
51270;SDS011;37744;50.960;4.136;2022-10-13T07:00:27;24.17;;;12.35;;
51270;SDS011;37744;50.960;4.136;2022-10-13T07:02:53;19.45;;;12.20;;
51270;SDS011;37744;50.960;4.136;2022-10-13T07:05:18;22.85;;;12.88;;
51270;SDS011;37744;50.960;4.136;2022-10-13T07:07:44;21.85;;;11.95;;
51270;SDS011;37744;50.960;4.136;2022-10-13T07:10:11;28.10;;;13.02;;
51270;SDS011;37744;50.960;4.136;2022-10-13T07:12:42;22.90;;;12.68;;
51270;SDS011;37744;50.960;4.136;2022-10-13T07:15:07;19.92;;;12.20;;
51270;SDS011;37744;50.960;4.136;2022-10-13T07:17:33;22.95;;;11.75;;
51270;SDS011;37744;50.960;4.136;2022-10-13T07:19:58;21.15;;;11.52;;
51270;SDS011;37744;50.960;4.136;2022-10-13T07:22:25;21.65;;;12.38;;
51270;SDS011;37744;50.960;4.136;2022-10-13T07:24:51;21.33;;;11.82;;
51270;SDS011;37744;50.960;4.136;2022-10-13T07:27:16;19.92;;;11.48;;
51270;SDS011;37744;50.960;4.136;2022-10-13T07:29:48;18.70;;;11.55;;
51270;SDS011;37744;50.960;4.136;2022-10-13T07:32:14;27.58;;;12.63;;
51270;SDS011;37744;50.960;4.136;2022-10-13T07:34:42;21.35;;;11.38;;
51270;SDS011;37744;50.960;4.136;2022-10-13T07:37:10;21.90;;;11.80;;
51270;SDS011;37744;50.960;4.136;2022-10-13T07:39:35;19.25;;;11.50;;
51270;SDS011;37744;50.960;4.136;2022-10-13T07:42:03;21.15;;;11.75;;
51270;SDS011;37744;50.960;4.136;2022-10-13T07:44:30;26.42;;;12.18;;
51270;SDS011;37744;50.960;4.136;2022-10-13T07:46:56;17.55;;;10.73;;
51270;SDS011;37744;50.960;4.136;2022-10-13T07:49:23;19.95;;;11.13;;
51270;SDS011;37744;50.960;4.136;2022-10-13T07:51:49;22.42;;;11.38;;
51270;SDS011;37744;50.960;4.136;2022-10-13T07:54:15;21.70;;;10.38;;
51270;SDS011;37744;50.960;4.136;2022-10-13T07:56:44;20.40;;;12.20;;
51270;SDS011;37744;50.960;4.136;2022-10-13T07:59:11;19.65;;;11.43;;
51270;SDS011;37744;50.960;4.136;2022-10-13T08:01:37;21.40;;;11.43;;
51270;SDS011;37744;50.960;4.136;2022-10-13T08:04:02;21.48;;;12.02;;
51270;SDS011;37744;50.960;4.136;2022-10-13T08:06:30;24.00;;;12.00;;
51270;SDS011;37744;50.960;4.136;2022-10-13T08:08:55;21.40;;;11.23;;
51270;SDS011;37744;50.960;4.136;2022-10-13T08:11:22;21.92;;;11.63;;
51270;SDS011;37744;50.960;4.136;2022-10-13T08:13:49;23.08;;;11.68;;
51270;SDS011;37744;50.960;4.136;2022-10-13T08:16:15;22.35;;;11.82;;
51270;SDS011;37744;50.960;4.136;2022-10-13T08:18:43;21.67;;;11.38;;
51270;SDS011;37744;50.960;4.136;2022-10-13T08:21:14;23.15;;;11.93;;
51270;SDS011;37744;50.960;4.136;2022-10-13T08:23:42;23.63;;;11.90;;
51270;SDS011;37744;50.960;4.136;2022-10-13T08:26:13;23.42;;;11.00;;
51270;SDS011;37744;50.960;4.136;2022-10-13T08:28:41;21.05;;;11.55;;
51270;SDS011;37744;50.960;4.136;2022-10-13T08:31:07;25.30;;;11.75;;
51270;SDS011;37744;50.960;4.136;2022-10-13T08:33:32;22.08;;;10.70;;
51270;SDS011;37744;50.960;4.136;2022-10-13T08:36:00;19.88;;;10.48;;
51270;SDS011;37744;50.960;4.136;2022-10-13T08:38:25;19.48;;;10.50;;
51270;SDS011;37744;50.960;4.136;2022-10-13T08:40:50;18.33;;;10.95;;
51270;SDS011;37744;50.960;4.136;2022-10-13T08:43:22;19.50;;;10.27;;
51270;SDS011;37744;50.960;4.136;2022-10-13T08:48:23;16.55;;;10.25;;
51270;SDS011;37744;50.960;4.136;2022-10-13T08:56:00;19.83;;;9.55;;
51270;SDS011;37744;50.960;4.136;2022-10-13T08:58:30;19.90;;;9.73;;
51270;SDS011;37744;50.960;4.136;2022-10-13T09:06:45;21.70;;;9.85;;
51270;SDS011;37744;50.960;4.136;2022-10-13T09:09:20;16.08;;;9.45;;
51270;SDS011;37744;50.960;4.136;2022-10-13T09:11:48;21.40;;;9.45;;
51270;SDS011;37744;50.960;4.136;2022-10-13T09:14:25;18.17;;;9.55;;
51270;SDS011;37744;50.960;4.136;2022-10-13T09:17:13;20.00;;;9.43;;
51270;SDS011;37744;50.960;4.136;2022-10-13T09:20:03;18.50;;;10.73;;
51270;SDS011;37744;50.960;4.136;2022-10-13T09:22:39;18.15;;;8.95;;
51270;SDS011;37744;50.960;4.136;2022-10-13T09:25:14;22.20;;;9.95;;
51270;SDS011;37744;50.960;4.136;2022-10-13T09:30:30;19.20;;;9.52;;
51270;SDS011;37744;50.960;4.136;2022-10-13T09:33:13;18.23;;;9.25;;
51270;SDS011;37744;50.960;4.136;2022-10-13T09:38:28;18.70;;;9.40;;
51270;SDS011;37744;50.960;4.136;2022-10-13T09:43:35;19.63;;;9.57;;
51270;SDS011;37744;50.960;4.136;2022-10-13T09:46:10;20.98;;;9.95;;
51270;SDS011;37744;50.960;4.136;2022-10-13T09:48:46;18.25;;;10.13;;
51270;SDS011;37744;50.960;4.136;2022-10-13T09:54:06;18.15;;;10.70;;
51270;SDS011;37744;50.960;4.136;2022-10-13T09:57:02;16.98;;;9.70;;
51270;SDS011;37744;50.960;4.136;2022-10-13T09:59:42;20.17;;;9.95;;
51270;SDS011;37744;50.960;4.136;2022-10-13T10:02:23;18.38;;;9.93;;
51270;SDS011;37744;50.960;4.136;2022-10-13T10:04:54;17.40;;;9.48;;
51270;SDS011;37744;50.960;4.136;2022-10-13T10:07:24;20.15;;;10.32;;
51270;SDS011;37744;50.960;4.136;2022-10-13T10:09:56;18.35;;;10.20;;
51270;SDS011;37744;50.960;4.136;2022-10-13T10:12:27;22.47;;;10.30;;
51270;SDS011;37744;50.960;4.136;2022-10-13T10:14:56;19.35;;;10.25;;
51270;SDS011;37744;50.960;4.136;2022-10-13T10:23:00;17.42;;;9.95;;
51270;SDS011;37744;50.960;4.136;2022-10-13T10:25:53;20.35;;;11.43;;
51270;SDS011;37744;50.960;4.136;2022-10-13T10:37:02;20.75;;;11.00;;
51270;SDS011;37744;50.960;4.136;2022-10-13T10:45:17;21.30;;;12.10;;
51270;SDS011;37744;50.960;4.136;2022-10-13T10:47:54;19.88;;;11.82;;
51270;SDS011;37744;50.960;4.136;2022-10-13T10:50:23;21.63;;;11.68;;
51270;SDS011;37744;50.960;4.136;2022-10-13T10:52:52;20.50;;;11.23;;
51270;SDS011;37744;50.960;4.136;2022-10-13T11:06:58;20.92;;;12.50;;
51270;SDS011;37744;50.960;4.136;2022-10-13T11:12:23;23.80;;;12.05;;
51270;SDS011;37744;50.960;4.136;2022-10-13T11:15:08;22.77;;;12.95;;
51270;SDS011;37744;50.960;4.136;2022-10-13T11:17:39;23.67;;;12.95;;
51270;SDS011;37744;50.960;4.136;2022-10-13T11:28:26;22.85;;;13.32;;
51270;SDS011;37744;50.960;4.136;2022-10-13T11:39:23;20.45;;;12.05;;
51270;SDS011;37744;50.960;4.136;2022-10-13T11:45:02;23.33;;;13.02;;
51270;SDS011;37744;50.960;4.136;2022-10-13T11:47:41;23.13;;;12.13;;
51270;SDS011;37744;50.960;4.136;2022-10-13T11:53:33;23.83;;;11.77;;
51270;SDS011;37744;50.960;4.136;2022-10-13T11:56:21;24.92;;;12.73;;
51270;SDS011;37744;50.960;4.136;2022-10-13T11:59:00;22.15;;;12.60;;
51270;SDS011;37744;50.960;4.136;2022-10-13T12:01:31;22.70;;;12.38;;
51270;SDS011;37744;50.960;4.136;2022-10-13T12:03:56;19.38;;;12.00;;
51270;SDS011;37744;50.960;4.136;2022-10-13T12:06:29;20.25;;;12.05;;
51270;SDS011;37744;50.960;4.136;2022-10-13T12:09:12;22.77;;;12.65;;
51270;SDS011;37744;50.960;4.136;2022-10-13T12:11:43;22.50;;;13.15;;
51270;SDS011;37744;50.960;4.136;2022-10-13T12:14:21;21.67;;;12.35;;
51270;SDS011;37744;50.960;4.136;2022-10-13T12:16:53;26.02;;;14.02;;
51270;SDS011;37744;50.960;4.136;2022-10-13T12:19:23;26.05;;;14.07;;
51270;SDS011;37744;50.960;4.136;2022-10-13T12:21:52;24.98;;;13.80;;
51270;SDS011;37744;50.960;4.136;2022-10-13T12:24:22;25.95;;;14.60;;
51270;SDS011;37744;50.960;4.136;2022-10-13T12:29:52;23.00;;;13.85;;
51270;SDS011;37744;50.960;4.136;2022-10-13T12:32:25;21.85;;;13.38;;
51270;SDS011;37744;50.960;4.136;2022-10-13T12:34:53;24.60;;;14.07;;
51270;SDS011;37744;50.960;4.136;2022-10-13T12:37:33;22.83;;;13.20;;
51270;SDS011;37744;50.960;4.136;2022-10-13T12:40:02;21.38;;;13.43;;
51270;SDS011;37744;50.960;4.136;2022-10-13T12:42:34;24.33;;;13.48;;
51270;SDS011;37744;50.960;4.136;2022-10-13T12:45:05;22.08;;;13.43;;
51270;SDS011;37744;50.960;4.136;2022-10-13T12:47:50;24.58;;;14.23;;
51270;SDS011;37744;50.960;4.136;2022-10-13T12:55:56;26.17;;;14.40;;
51270;SDS011;37744;50.960;4.136;2022-10-13T12:58:28;20.50;;;12.82;;
51270;SDS011;37744;50.960;4.136;2022-10-13T13:01:06;24.50;;;13.97;;
51270;SDS011;37744;50.960;4.136;2022-10-13T13:03:39;21.45;;;13.27;;
51270;SDS011;37744;50.960;4.136;2022-10-13T13:08:45;23.55;;;14.90;;
51270;SDS011;37744;50.960;4.136;2022-10-13T13:11:32;19.63;;;12.80;;
51270;SDS011;37744;50.960;4.136;2022-10-13T13:17:39;22.67;;;13.50;;
51270;SDS011;37744;50.960;4.136;2022-10-13T13:22:22;20.65;;;12.93;;
51270;SDS011;37744;50.960;4.136;2022-10-13T13:24:48;20.10;;;13.40;;
51270;SDS011;37744;50.960;4.136;2022-10-13T13:27:33;23.77;;;13.27;;
51270;SDS011;37744;50.960;4.136;2022-10-13T13:30:03;21.77;;;12.60;;
51270;SDS011;37744;50.960;4.136;2022-10-13T13:35:02;26.45;;;13.82;;
51270;SDS011;37744;50.960;4.136;2022-10-13T13:40:19;21.40;;;13.57;;
51270;SDS011;37744;50.960;4.136;2022-10-13T13:42:52;23.38;;;13.25;;
51270;SDS011;37744;50.960;4.136;2022-10-13T13:45:22;21.20;;;13.32;;
51270;SDS011;37744;50.960;4.136;2022-10-13T13:47:50;20.67;;;12.63;;
51270;SDS011;37744;50.960;4.136;2022-10-13T13:50:23;25.77;;;13.52;;
51270;SDS011;37744;50.960;4.136;2022-10-13T13:52:56;25.98;;;13.48;;
51270;SDS011;37744;50.960;4.136;2022-10-13T13:55:25;24.90;;;14.13;;
51270;SDS011;37744;50.960;4.136;2022-10-13T13:57:55;24.67;;;14.90;;
51270;SDS011;37744;50.960;4.136;2022-10-13T14:00:21;23.65;;;13.45;;
51270;SDS011;37744;50.960;4.136;2022-10-13T14:05:16;26.52;;;15.65;;
51270;SDS011;37744;50.960;4.136;2022-10-13T14:07:43;22.70;;;14.30;;
51270;SDS011;37744;50.960;4.136;2022-10-13T14:10:08;22.38;;;13.90;;
51270;SDS011;37744;50.960;4.136;2022-10-13T14:12:36;22.40;;;13.98;;
51270;SDS011;37744;50.960;4.136;2022-10-13T14:17:34;23.00;;;14.45;;
51270;SDS011;37744;50.960;4.136;2022-10-13T14:22:31;22.27;;;14.27;;
51270;SDS011;37744;50.960;4.136;2022-10-13T14:24:57;19.35;;;13.40;;
51270;SDS011;37744;50.960;4.136;2022-10-13T14:27:24;23.88;;;14.20;;
51270;SDS011;37744;50.960;4.136;2022-10-13T14:29:55;21.50;;;14.38;;
51270;SDS011;37744;50.960;4.136;2022-10-13T14:32:23;25.40;;;14.10;;
51270;SDS011;37744;50.960;4.136;2022-10-13T14:34:48;27.92;;;15.32;;
51270;SDS011;37744;50.960;4.136;2022-10-13T14:37:15;25.23;;;15.05;;
51270;SDS011;37744;50.960;4.136;2022-10-13T14:39:44;22.92;;;14.68;;
51270;SDS011;37744;50.960;4.136;2022-10-13T14:42:13;25.13;;;14.13;;
51270;SDS011;37744;50.960;4.136;2022-10-13T14:44:41;23.42;;;15.55;;
51270;SDS011;37744;50.960;4.136;2022-10-13T14:47:06;24.05;;;14.52;;
51270;SDS011;37744;50.960;4.136;2022-10-13T14:49:33;23.52;;;15.02;;
51270;SDS011;37744;50.960;4.136;2022-10-13T14:54:29;24.40;;;14.48;;
51270;SDS011;37744;50.960;4.136;2022-10-13T14:56:55;23.98;;;14.75;;
51270;SDS011;37744;50.960;4.136;2022-10-13T14:59:20;24.73;;;15.40;;
51270;SDS011;37744;50.960;4.136;2022-10-13T15:01:49;26.55;;;16.42;;
51270;SDS011;37744;50.960;4.136;2022-10-13T15:04:15;33.47;;;18.98;;
51270;SDS011;37744;50.960;4.136;2022-10-13T15:06:41;41.72;;;21.92;;
51270;SDS011;37744;50.960;4.136;2022-10-13T15:09:07;31.23;;;18.42;;
51270;SDS011;37744;50.960;4.136;2022-10-13T15:11:34;27.90;;;17.60;;
51270;SDS011;37744;50.960;4.136;2022-10-13T15:14:01;29.15;;;17.40;;
51270;SDS011;37744;50.960;4.136;2022-10-13T15:16:28;23.80;;;14.98;;
51270;SDS011;37744;50.960;4.136;2022-10-13T15:18:58;27.33;;;17.15;;
51270;SDS011;37744;50.960;4.136;2022-10-13T15:21:26;21.35;;;13.75;;
51270;SDS011;37744;50.960;4.136;2022-10-13T15:23:54;25.33;;;14.75;;
51270;SDS011;37744;50.960;4.136;2022-10-13T15:28:52;23.60;;;14.75;;
51270;SDS011;37744;50.960;4.136;2022-10-13T15:31:24;24.20;;;15.77;;
51270;SDS011;37744;50.960;4.136;2022-10-13T15:33:52;21.83;;;15.30;;
51270;SDS011;37744;50.960;4.136;2022-10-13T15:36:20;23.02;;;14.43;;
51270;SDS011;37744;50.960;4.136;2022-10-13T15:38:47;30.08;;;19.13;;
51270;SDS011;37744;50.960;4.136;2022-10-13T15:41:14;22.48;;;15.05;;
51270;SDS011;37744;50.960;4.136;2022-10-13T15:43:40;21.45;;;13.15;;
51270;SDS011;37744;50.960;4.136;2022-10-13T15:46:12;26.23;;;13.65;;
51270;SDS011;37744;50.960;4.136;2022-10-13T15:48:49;19.42;;;14.02;;
51270;SDS011;37744;50.960;4.136;2022-10-13T15:51:16;17.10;;;12.02;;
51270;SDS011;37744;50.960;4.136;2022-10-13T15:53:46;17.88;;;11.32;;
51270;SDS011;37744;50.960;4.136;2022-10-13T15:56:15;14.88;;;10.30;;
51270;SDS011;37744;50.960;4.136;2022-10-13T16:01:15;16.02;;;9.60;;
51270;SDS011;37744;50.960;4.136;2022-10-13T16:03:45;15.73;;;9.60;;
51270;SDS011;37744;50.960;4.136;2022-10-13T16:06:11;14.20;;;9.32;;
51270;SDS011;37744;50.960;4.136;2022-10-13T16:08:41;13.85;;;9.30;;
51270;SDS011;37744;50.960;4.136;2022-10-13T16:11:16;14.73;;;8.70;;
51270;SDS011;37744;50.960;4.136;2022-10-13T16:13:45;17.60;;;9.73;;
51270;SDS011;37744;50.960;4.136;2022-10-13T16:16:12;16.50;;;9.60;;
51270;SDS011;37744;50.960;4.136;2022-10-13T16:18:39;17.10;;;9.55;;
51270;SDS011;37744;50.960;4.136;2022-10-13T16:23:50;17.40;;;10.35;;
51270;SDS011;37744;50.960;4.136;2022-10-13T16:26:18;15.63;;;9.75;;
51270;SDS011;37744;50.960;4.136;2022-10-13T16:28:47;15.88;;;9.90;;
51270;SDS011;37744;50.960;4.136;2022-10-13T16:31:19;15.00;;;9.30;;
51270;SDS011;37744;50.960;4.136;2022-10-13T16:33:44;12.77;;;9.10;;
51270;SDS011;37744;50.960;4.136;2022-10-13T16:36:13;14.23;;;10.00;;
51270;SDS011;37744;50.960;4.136;2022-10-13T16:38:40;12.98;;;8.75;;
51270;SDS011;37744;50.960;4.136;2022-10-13T16:43:36;14.00;;;9.82;;
51270;SDS011;37744;50.960;4.136;2022-10-13T16:46:02;11.73;;;8.75;;
51270;SDS011;37744;50.960;4.136;2022-10-13T16:48:30;13.15;;;8.88;;
51270;SDS011;37744;50.960;4.136;2022-10-13T16:53:31;14.88;;;9.73;;
51270;SDS011;37744;50.960;4.136;2022-10-13T16:56:03;13.15;;;9.75;;
51270;SDS011;37744;50.960;4.136;2022-10-13T16:58:33;14.10;;;10.63;;
51270;SDS011;37744;50.960;4.136;2022-10-13T17:01:05;19.08;;;10.82;;
51270;SDS011;37744;50.960;4.136;2022-10-13T17:03:42;19.90;;;12.30;;
51270;SDS011;37744;50.960;4.136;2022-10-13T17:06:14;17.75;;;11.57;;
51270;SDS011;37744;50.960;4.136;2022-10-13T17:08:42;17.75;;;11.65;;
51270;SDS011;37744;50.960;4.136;2022-10-13T17:11:09;21.00;;;12.50;;
51270;SDS011;37744;50.960;4.136;2022-10-13T17:13:40;18.27;;;12.05;;
51270;SDS011;37744;50.960;4.136;2022-10-13T17:16:07;17.77;;;12.13;;